Time;durP1;ratioP1;P1;durP2;ratioP2;P2;SDS_P1;SDS_P2;PMS_P1;PMS_P2;Temp;Humidity;BMP_temperature;BMP_pressure;BME280_temperature;BME280_humidity;BME280_pressure;Samples;Min_cycle;Max_cycle;Signal;HPM_P1;HPM_P2
2022/07/26 00:00:11;;;;;;;19.67;13.18;;;;;;;19.16;100.00;98755.22;5079911;28;20051;-39
2022/07/26 00:02:36;;;;;;;18.13;12.75;;;;;;;19.20;100.00;98767.22;5084322;28;20070;-39
2022/07/26 00:05:03;;;;;;;24.60;13.95;;;;;;;19.21;100.00;98760.97;5085937;28;20495;-38
2022/07/26 00:07:29;;;;;;;22.83;14.18;;;;;;;19.21;100.00;98760.97;5086672;28;20075;-39
2022/07/26 00:09:54;;;;;;;23.88;12.95;;;;;;;19.21;100.00;98763.63;5084595;28;20080;-39
2022/07/26 00:12:20;;;;;;;18.80;13.32;;;;;;;19.21;100.00;98756.53;5088817;28;20042;-39
2022/07/26 00:14:46;;;;;;;18.30;13.25;;;;;;;19.21;100.00;98758.34;5089332;28;20127;-38
2022/07/26 00:17:12;;;;;;;20.88;13.27;;;;;;;19.21;100.00;98766.25;5088700;28;20047;-39
2022/07/26 00:19:37;;;;;;;20.83;13.55;;;;;;;19.12;100.00;98753.84;5086658;28;20036;-40
2022/07/26 00:24:47;;;;;;;19.10;12.60;;;;;;;19.19;100.00;98762.91;5074460;28;20404;-39
2022/07/26 00:27:13;;;;;;;20.83;12.63;;;;;;;19.19;100.00;98768.16;5088316;28;20044;-39
2022/07/26 00:29:40;;;;;;;20.52;13.43;;;;;;;19.18;100.00;98761.22;5088207;28;20064;-39
2022/07/26 00:32:05;;;;;;;17.75;12.57;;;;;;;19.17;100.00;98763.03;5091537;28;20503;-39
2022/07/26 00:34:31;;;;;;;23.27;13.20;;;;;;;18.98;100.00;98747.09;5073423;28;20495;-39
2022/07/26 00:36:57;;;;;;;18.40;12.52;;;;;;;18.97;100.00;98740.16;5087572;28;20044;-38
2022/07/26 00:39:23;;;;;;;16.02;12.50;;;;;;;19.15;100.00;98766.75;5090761;28;20101;-39
2022/07/26 00:41:49;;;;;;;19.65;13.40;;;;;;;19.14;100.00;98779.09;5091389;28;20072;-39
2022/07/26 00:44:15;;;;;;;17.23;12.30;;;;;;;19.15;100.00;98780.78;5089730;28;20522;-39
2022/07/26 00:46:43;;;;;;;21.95;13.02;;;;;;;19.14;100.00;98773.00;5088062;28;20075;-39
2022/07/26 00:49:11;;;;;;;16.45;11.88;;;;;;;19.14;100.00;98775.63;5119226;27;20044;-39
2022/07/26 00:51:37;;;;;;;20.02;11.60;;;;;;;18.96;100.00;98744.56;5088525;28;20542;-40
2022/07/26 00:54:04;;;;;;;15.32;11.75;;;;;;;19.12;100.00;98759.09;5089703;28;20043;-39
2022/07/26 00:56:31;;;;;;;17.98;12.13;;;;;;;18.95;100.00;98747.34;5087943;28;20070;-39
2022/07/26 00:58:57;;;;;;;18.60;13.35;;;;;;;19.08;100.00;98761.16;5091221;28;20143;-39
2022/07/26 01:01:23;;;;;;;19.33;12.15;;;;;;;19.08;100.00;98765.59;5069727;28;20560;-39
2022/07/26 01:03:50;;;;;;;19.27;12.48;;;;;;;18.91;100.00;98727.50;5091408;28;20040;-39
2022/07/26 01:06:16;;;;;;;20.05;12.90;;;;;;;19.08;100.00;98755.91;5091103;28;20130;-39
2022/07/26 01:08:42;;;;;;;15.38;12.25;;;;;;;19.05;100.00;98756.16;5072997;28;20147;-39
2022/07/26 01:11:09;;;;;;;16.88;11.93;;;;;;;19.03;100.00;98758.91;5090348;28;20541;-39
2022/07/26 01:13:34;;;;;;;17.98;12.75;;;;;;;19.02;100.00;98754.59;5082286;28;20113;-39
2022/07/26 01:16:00;;;;;;;18.90;12.82;;;;;;;18.85;100.00;98723.56;5087666;28;20075;-39
2022/07/26 01:18:27;;;;;;;17.30;12.18;;;;;;;19.00;100.00;98753.88;5071669;28;20440;-39
2022/07/26 01:20:53;;;;;;;18.00;12.00;;;;;;;19.00;100.00;98758.31;5087552;28;20047;-38
2022/07/26 01:23:19;;;;;;;17.83;12.50;;;;;;;18.96;100.00;98751.66;5086113;28;20117;-39
2022/07/26 01:25:45;;;;;;;17.85;12.18;;;;;;;18.81;100.00;98735.31;5090876;28;20082;-39
2022/07/26 01:28:11;;;;;;;17.55;12.80;;;;;;;18.96;100.00;98760.38;5086202;28;20035;-39
2022/07/26 01:30:37;;;;;;;18.05;12.73;;;;;;;18.95;100.00;98760.50;5086700;28;20476;-39
2022/07/26 01:33:03;;;;;;;22.92;11.82;;;;;;;18.76;100.00;98736.66;5089376;28;20698;-39
2022/07/26 01:35:29;;;;;;;21.08;12.68;;;;;;;18.93;100.00;98763.28;5089703;28;20122;-39
2022/07/26 01:37:55;;;;;;;18.58;13.18;;;;;;;18.94;100.00;98762.34;5080917;28;20419;-39
2022/07/26 01:40:21;;;;;;;15.77;11.88;;;;;;;18.74;100.00;98733.31;5079609;28;20044;-39
2022/07/26 01:42:46;;;;;;;16.60;12.32;;;;;;;18.92;100.00;98766.88;5083326;28;20059;-39
2022/07/26 01:45:12;;;;;;;16.73;13.15;;;;;;;18.79;100.00;98744.34;5090618;28;20061;-38
2022/07/26 01:47:39;;;;;;;21.13;12.95;;;;;;;18.96;100.00;98772.72;5087056;28;20119;-39
2022/07/26 01:50:06;;;;;;;17.60;13.43;;;;;;;18.96;100.00;98767.44;5089711;28;20040;-39
2022/07/26 01:52:33;;;;;;;17.92;12.55;;;;;;;18.79;100.00;98744.34;5087432;28;20495;-39
2022/07/26 01:54:59;;;;;;;20.40;13.15;;;;;;;18.96;100.00;98785.88;5089333;28;20530;-39
2022/07/26 01:57:25;;;;;;;17.77;12.75;;;;;;;18.94;100.00;98772.03;5089055;28;20036;-38
2022/07/26 01:59:50;;;;;;;17.20;13.25;;;;;;;18.95;100.00;98773.69;5090210;28;20108;-39
2022/07/26 02:02:19;;;;;;;20.15;12.20;;;;;;;18.97;100.00;98775.22;5088965;28;20036;-38
2022/07/26 02:04:57;;;;;;;15.90;12.15;;;;;;;18.94;100.00;98772.03;5089503;28;20040;-38
2022/07/26 02:07:39;;;;;;;17.95;12.05;;;;;;;18.95;100.00;98781.56;5089286;28;20036;-38
2022/07/26 02:10:07;;;;;;;16.40;12.00;;;;;;;18.95;100.00;98781.56;5085895;28;20098;-39
2022/07/26 02:12:32;;;;;;;16.60;12.10;;;;;;;18.98;100.00;98784.81;5088225;28;20048;-39
2022/07/26 02:14:59;;;;;;;16.38;12.23;;;;;;;18.86;100.00;98771.81;5088319;28;20046;-39
2022/07/26 02:17:25;;;;;;;15.23;11.95;;;;;;;19.01;100.00;98791.63;5088847;28;20055;-38
2022/07/26 02:19:51;;;;;;;15.02;12.23;;;;;;;18.88;100.00;98776.00;5089062;28;20040;-38
2022/07/26 02:22:18;;;;;;;16.70;12.43;;;;;;;19.03;100.00;98793.16;5080583;28;20051;-38
2022/07/26 02:24:45;;;;;;;14.48;12.05;;;;;;;19.07;100.00;98793.75;5069967;28;20044;-39
2022/07/26 02:27:11;;;;;;;16.77;12.30;;;;;;;19.07;100.00;98798.16;5087014;28;20090;-39
2022/07/26 02:29:37;;;;;;;15.63;12.50;;;;;;;19.08;100.00;98802.47;5087443;28;20024;-39
2022/07/26 02:32:03;;;;;;;17.63;12.38;;;;;;;19.09;100.00;98799.72;5067731;28;21859;-39
2022/07/26 02:34:29;;;;;;;17.98;12.77;;;;;;;19.11;100.00;98797.78;5100427;28;20040;-38
2022/07/26 02:36:55;;;;;;;18.23;13.05;;;;;;;19.16;100.00;98800.03;5087471;28;20044;-39
2022/07/26 02:39:26;;;;;;;16.23;12.63;;;;;;;19.18;100.00;98811.28;5084793;28;20089;-38
2022/07/26 02:42:02;;;;;;;15.02;11.98;;;;;;;19.07;100.00;98790.28;5086392;28;20078;-38
2022/07/26 02:44:29;;;;;;;14.88;12.07;;;;;;;19.25;100.00;98823.00;5086584;28;20509;-38
2022/07/26 02:46:55;;;;;;;15.68;12.50;;;;;;;19.13;100.00;98806.41;5088227;28;20047;-37
2022/07/26 02:49:21;;;;;;;19.48;12.95;;;;;;;19.28;100.00;98822.72;5086357;28;20063;-38
2022/07/26 02:51:47;;;;;;;21.50;12.48;;;;;;;19.31;100.00;98823.31;5086738;28;20560;-38
2022/07/26 02:54:13;;;;;;;18.15;13.30;;;;;;;19.32;100.00;98824.97;5085986;28;20081;-38
2022/07/26 02:56:39;;;;;;;18.75;13.00;;;;;;;19.33;100.00;98828.47;5072943;28;20087;-38
2022/07/26 02:59:06;;;;;;;16.40;11.88;;;;;;;19.35;100.00;98829.19;5088555;28;20135;-39
2022/07/26 03:01:34;;;;;;;15.95;12.18;;;;;;;19.37;100.00;98833.34;5084445;28;20096;-39
2022/07/26 03:04:00;;;;;;;16.92;12.50;;;;;;;19.42;100.00;98835.59;5086170;28;20163;-39
2022/07/26 03:06:26;;;;;;;16.65;12.15;;;;;;;19.43;100.00;98830.19;5072104;28;20040;-39
2022/07/26 03:08:52;;;;;;;16.52;12.60;;;;;;;19.48;100.00;98835.09;5089241;28;20534;-39
2022/07/26 03:11:18;;;;;;;19.38;12.57;;;;;;;19.50;100.00;98833.19;5089165;28;20051;-39
2022/07/26 03:13:44;;;;;;;18.63;12.93;;;;;;;19.51;100.00;98834.88;5085490;28;20054;-38
2022/07/26 03:16:10;;;;;;;18.35;12.63;;;;;;;19.54;100.00;98839.88;5088694;28;20476;-39
2022/07/26 03:18:36;;;;;;;19.80;14.00;;;;;;;19.59;100.00;98842.09;5086452;28;20534;-39
2022/07/26 03:21:02;;;;;;;20.33;15.05;;;;;;;19.42;100.00;98814.50;5085756;28;20075;-39
2022/07/26 03:23:32;;;;;;;19.10;13.63;;;;;;;19.62;100.00;98847.97;5083496;28;20052;-39
2022/07/26 03:25:58;;;;;;;16.88;13.38;;;;;;;19.66;100.00;98851.19;5087775;28;20543;-39
2022/07/26 03:28:24;;;;;;;16.10;12.77;;;;;;;19.68;100.00;98849.25;5087776;28;20093;-40
2022/07/26 03:30:50;;;;;;;19.88;14.45;;;;;;;19.68;100.00;98851.91;5088460;28;20127;-39
2022/07/26 03:33:15;;;;;;;19.90;13.45;;;;;;;19.75;100.00;98847.75;5086139;28;20036;-39
2022/07/26 03:35:41;;;;;;;28.73;15.63;;;;;;;19.77;100.00;98849.31;5084316;28;20044;-39
2022/07/26 03:38:07;;;;;;;25.27;14.40;;;;;;;19.80;100.00;98853.47;5088313;28;20134;-40
2022/07/26 03:40:33;;;;;;;16.77;13.45;;;;;;;19.81;100.00;98845.44;5083255;28;20115;-38
2022/07/26 03:42:59;;;;;;;20.55;13.95;;;;;;;19.87;100.00;98849.34;5079435;28;20044;-38
2022/07/26 03:45:25;;;;;;;17.33;13.75;;;;;;;19.88;100.00;98857.16;5088165;28;20109;-39
2022/07/26 03:47:52;;;;;;;18.60;13.43;;;;;;;19.93;100.00;98853.28;5090819;28;20035;-39
2022/07/26 03:50:18;;;;;;;15.85;12.80;;;;;;;19.97;100.00;98852.88;5093448;28;20039;-38
2022/07/26 03:52:43;;;;;;;17.65;12.75;;;;;;;20.00;100.00;98860.50;5075506;28;20492;-38
2022/07/26 03:57:54;;;;;;;19.02;13.00;;;;;;;20.07;100.00;98859.03;5089066;28;20054;-38
2022/07/26 04:00:20;;;;;;;17.52;13.65;;;;;;;20.11;100.00;98857.78;5090592;28;20507;-39
2022/07/26 04:02:46;;;;;;;19.77;13.27;;;;;;;20.17;100.00;98861.69;5089035;28;20051;-40
2022/07/26 04:05:12;;;;;;;16.92;13.43;;;;;;;20.21;100.00;98858.66;5089160;28;20035;-38
2022/07/26 04:07:46;;;;;;;16.00;12.48;;;;;;;20.17;100.00;98851.16;5091618;28;20044;-37
2022/07/26 04:10:14;;;;;;;16.60;12.77;;;;;;;20.29;100.00;98860.66;5090811;28;20052;-40
2022/07/26 04:12:40;;;;;;;18.63;12.10;;;;;;;20.32;100.00;98859.56;5092195;28;20046;-39
2022/07/26 04:15:06;;;;;;;17.30;12.55;;;;;;;20.36;100.00;98863.63;5089793;28;20040;-38
2022/07/26 04:17:39;;;;;;;19.27;12.65;;;;;;;20.35;100.00;98854.03;5088914;28;20038;-39
2022/07/26 04:20:06;;;;;;;16.00;12.52;;;;;;;20.42;100.00;98865.69;5089875;28;20043;-39
2022/07/26 04:22:34;;;;;;;14.55;12.50;;;;;;;20.47;100.00;98860.84;5087088;28;20090;-38
2022/07/26 04:25:00;;;;;;;16.55;13.30;;;;;;;20.53;100.00;98860.31;5091338;28;20048;-39
2022/07/26 04:27:30;;;;;;;16.30;13.05;;;;;;;20.57;100.00;98872.28;5053014;28;20139;-38
2022/07/26 04:29:56;;;;;;;17.75;13.30;;;;;;;20.62;100.00;98875.38;5079481;28;20036;-39
2022/07/26 04:32:22;;;;;;;19.38;11.60;;;;;;;20.64;100.00;98871.59;5075968;28;20044;-39
2022/07/26 04:34:48;;;;;;;23.15;15.18;;;;;;;20.66;100.00;98872.31;5081167;28;20032;-39
2022/07/26 04:37:14;;;;;;;15.15;12.15;;;;;;;20.52;100.00;98841.00;5083279;28;20040;-38
2022/07/26 04:39:40;;;;;;;56.03;15.85;;;;;;;20.71;100.00;98863.97;5057695;28;20043;-38
2022/07/26 04:42:06;;;;;;;21.55;12.68;;;;;;;20.76;100.00;98863.56;5087510;28;20051;-39
2022/07/26 04:44:32;;;;;;;23.33;12.25;;;;;;;20.81;100.00;98859.53;5090568;28;20043;-38
2022/07/26 04:46:57;;;;;;;16.85;12.30;;;;;;;20.87;100.00;98860.81;5086907;28;20436;-39
2022/07/26 04:49:23;;;;;;;18.60;13.07;;;;;;;20.92;100.00;98858.59;5087388;28;20044;-39
2022/07/26 04:51:49;;;;;;;17.55;12.38;;;;;;;20.96;100.00;98863.44;5086299;28;20096;-37
2022/07/26 04:54:19;;;;;;;14.20;11.60;;;;;;;21.01;100.00;98861.22;5090823;28;20039;-39
2022/07/26 04:56:46;;;;;;;14.77;11.32;;;;;;;20.91;100.00;98838.41;5088314;28;20580;-40
2022/07/26 04:59:12;;;;;;;19.50;12.50;;;;;;;20.89;100.00;98829.78;5091157;28;20044;-39
2022/07/26 05:01:38;;;;;;;19.20;13.57;;;;;;;21.12;100.00;98866.38;5080242;28;20037;-38
2022/07/26 05:04:04;;;;;;;16.63;12.82;;;;;;;21.17;100.00;98871.28;5084408;28;20036;-39
2022/07/26 05:06:31;;;;;;;21.48;13.18;;;;;;;21.26;100.00;98861.66;5067392;28;20047;-39
2022/07/26 05:08:57;;;;;;;16.02;12.10;;;;;;;21.33;100.00;98874.19;5089144;28;20379;-40
2022/07/26 05:11:25;;;;;;;14.13;10.82;;;;;;;21.37;100.00;98862.38;5088998;28;20039;-40
2022/07/26 05:13:51;;;;;;;18.65;12.25;;;;;;;21.43;100.00;98871.53;5080735;28;20393;-39
2022/07/26 05:16:17;;;;;;;15.93;11.65;;;;;;;21.48;100.00;98864.84;5096501;28;20044;-39
2022/07/26 05:18:43;;;;;;;15.68;11.35;;;;;;;21.55;100.00;98865.97;5083053;28;20041;-40
2022/07/26 05:21:09;;;;;;;14.50;11.38;;;;;;;21.52;100.00;98852.19;5081714;28;20054;-39
2022/07/26 05:23:35;;;;;;;15.10;12.20;;;;;;;21.70;100.00;98870.81;5089879;28;20040;-38
2022/07/26 05:26:01;;;;;;;15.82;11.95;;;;;;;21.75;100.00;98866.75;5087724;28;20040;-39
2022/07/26 05:28:27;;;;;;;17.15;12.57;;;;;;;21.70;100.00;98855.78;5087317;28;20040;-39
2022/07/26 05:30:53;;;;;;;18.20;12.90;;;;;;;21.75;100.00;98848.25;5082572;28;20046;-40
2022/07/26 05:33:18;;;;;;;20.50;12.55;;;;;;;21.99;100.00;98876.88;5082925;28;20047;-39
2022/07/26 05:35:44;;;;;;;16.95;12.43;;;;;;;22.07;100.00;98878.81;5080814;28;20039;-40
2022/07/26 05:38:10;;;;;;;18.70;11.90;;;;;;;22.14;100.00;98872.78;5081023;28;20060;-39
2022/07/26 05:40:36;;;;;;;15.15;12.07;;;;;;;22.11;100.00;98849.25;5082837;28;20410;-39
2022/07/26 05:43:03;;;;;;;16.77;11.98;;;;;;;22.37;100.00;98878.53;5078326;28;20059;-38
2022/07/26 05:45:29;;;;;;;16.17;12.18;;;;;;;22.24;100.00;98833.84;5088668;28;20040;-47
2022/07/26 05:47:55;;;;;;;18.45;11.43;;;;;;;22.55;100.00;98870.66;5086254;28;20076;-48
2022/07/26 05:50:21;;;;;;;15.10;11.50;;;;;;;22.66;100.00;98873.09;5087910;28;20139;-47
2022/07/26 05:52:47;;;;;;;14.10;11.13;;;;;;;22.73;100.00;98872.38;5088759;28;20059;-48
2022/07/26 05:55:13;;;;;;;16.08;10.80;;;;;;;22.83;100.00;98872.31;5084081;28;20054;-46
2022/07/26 05:57:44;;;;;;;19.30;11.57;;;;;;;22.82;100.00;98845.97;5089181;28;20423;-49
2022/07/26 06:00:10;;;;;;;13.00;9.82;;;;;;;23.05;100.00;98871.88;5086865;28;20135;-50
2022/07/26 06:02:39;;;;;;;;;;;;;;;23.13;100.00;98871.94;5081982;28;20039;-48
2022/07/26 06:05:05;;;;;;;13.35;10.48;;;;;;;23.16;100.00;98869.00;5085824;28;19927;-47
2022/07/26 06:07:31;;;;;;;13.00;10.27;;;;;;;23.34;100.00;98873.47;5080671;28;20531;-48
2022/07/26 06:09:57;;;;;;;12.00;10.23;;;;;;;23.46;100.00;98866.94;5081015;28;20054;-46
2022/07/26 06:12:24;;;;;;;13.23;10.18;;;;;;;23.54;100.00;98872.34;5084240;28;20035;-46
2022/07/26 06:14:50;;;;;;;14.13;10.02;;;;;;;23.70;100.00;98872.47;5088224;28;20043;-47
2022/07/26 06:17:15;;;;;;;13.32;10.18;;;;;;;23.91;100.00;98875.59;5087403;28;20500;-42
2022/07/26 06:19:41;;;;;;;14.93;10.18;;;;;;;23.84;100.00;98839.19;5085592;28;20097;-44
2022/07/26 06:22:07;;;;;;;13.45;9.60;;;;;;;24.19;100.00;98870.94;5084851;28;20526;-46
2022/07/26 06:24:33;;;;;;;24.85;14.10;;;;;;;24.47;100.00;98877.72;5085494;28;20044;-45
2022/07/26 06:26:59;;;;;;;14.07;10.02;;;;;;;24.70;100.00;98872.66;5086596;28;20515;-44
2022/07/26 06:29:25;;;;;;;13.40;9.38;;;;;;;24.75;100.00;98843.75;5088587;28;20488;-45
2022/07/26 06:31:51;;;;;;;11.55;9.00;;;;;;;25.24;100.00;98873.09;5089045;28;20044;-45
2022/07/26 06:34:17;;;;;;;11.45;8.80;;;;;;;25.62;100.00;98877.78;5088185;28;20031;-45
2022/07/26 06:36:43;;;;;;;11.55;9.10;;;;;;;26.13;98.69;98854.38;5070093;28;20450;-45
2022/07/26 06:39:08;;;;;;;11.50;8.48;;;;;;;27.04;91.46;98880.50;5088490;28;20039;-45
2022/07/26 06:41:35;;;;;;;9.93;8.38;;;;;;;27.72;86.26;98869.78;5087361;28;20032;-44
2022/07/26 06:44:01;;;;;;;13.23;8.20;;;;;;;28.47;81.26;98864.31;5088426;28;20097;-45
2022/07/26 06:46:27;;;;;;;10.38;7.40;;;;;;;29.28;76.01;98865.84;5088550;28;20691;-44
2022/07/26 06:48:54;;;;;;;8.32;7.40;;;;;;;30.02;72.74;98872.47;5089730;28;20472;-44
2022/07/26 06:51:20;;;;;;;10.57;8.38;;;;;;;30.58;70.62;98853.59;5088720;28;20044;-46
2022/07/26 06:53:46;;;;;;;8.75;7.88;;;;;;;31.35;68.45;98861.25;5089257;28;20039;-44
2022/07/26 06:56:13;;;;;;;9.60;7.97;;;;;;;32.05;66.20;98862.47;5090577;28;20043;-45
2022/07/26 06:58:40;;;;;;;12.32;8.10;;;;;;;32.71;63.98;98871.22;5090497;28;20047;-46
2022/07/26 07:01:06;;;;;;;10.25;8.55;;;;;;;33.33;61.86;98838.13;5087718;28;20479;-44
2022/07/26 07:03:32;;;;;;;17.42;8.00;;;;;;;34.23;60.30;98866.34;5090672;28;20097;-44
2022/07/26 07:05:58;;;;;;;10.52;7.38;;;;;;;34.91;57.76;98858.06;5090280;28;20495;-44
2022/07/26 07:08:23;;;;;;;9.55;8.32;;;;;;;35.49;56.33;98858.22;5090309;28;20048;-45
2022/07/26 07:10:51;;;;;;;8.13;7.35;;;;;;;36.05;53.60;98857.69;5078929;28;20114;-43
2022/07/26 07:13:17;;;;;;;9.40;8.57;;;;;;;36.71;52.90;98861.84;5069035;28;20047;-44
2022/07/26 07:15:43;;;;;;;8.38;7.60;;;;;;;37.15;50.58;98837.75;5068839;28;20029;-46
2022/07/26 07:18:09;;;;;;;7.70;6.82;;;;;;;37.72;48.95;98844.69;5070102;28;20055;-45
2022/07/26 07:20:35;;;;;;;8.60;7.90;;;;;;;38.54;47.53;98857.50;5069001;28;20508;-45
2022/07/26 07:23:01;;;;;;;9.57;8.23;;;;;;;39.13;46.47;98855.72;5073694;28;20067;-45
2022/07/26 07:25:26;;;;;;;8.23;7.13;;;;;;;39.62;44.56;98861.88;5073005;28;20071;-46
2022/07/26 07:27:52;;;;;;;8.07;7.15;;;;;;;39.65;44.19;98836.06;5077078;28;20043;-46
2022/07/26 07:30:18;;;;;;;9.05;7.30;;;;;;;40.32;43.30;98862.63;5061741;28;20105;-45
2022/07/26 07:32:44;;;;;;;7.93;7.20;;;;;;;40.71;41.59;98866.66;5090078;28;20402;-47
2022/07/26 07:35:11;;;;;;;8.73;7.60;;;;;;;41.01;41.47;98863.97;5090411;28;20067;-44
2022/07/26 07:37:36;;;;;;;8.07;7.25;;;;;;;41.30;40.03;98861.56;5082295;28;20067;-43
2022/07/26 07:40:07;;;;;;;7.85;7.15;;;;;;;41.42;38.36;98861.31;5090020;28;20116;-47
2022/07/26 07:42:32;;;;;;;7.72;7.00;;;;;;;41.67;38.38;98865.97;5093744;28;20048;-44
2022/07/26 07:44:58;;;;;;;9.95;7.18;;;;;;;41.91;36.67;98864.34;5091923;28;20469;-44
2022/07/26 07:47:24;;;;;;;12.23;7.10;;;;;;;42.09;34.54;98868.38;5093427;28;20707;-43
2022/07/26 07:49:49;;;;;;;9.48;7.13;;;;;;;42.06;32.34;98868.94;5090704;28;20093;-44
2022/07/26 07:52:15;;;;;;;7.25;6.55;;;;;;;42.11;30.85;98866.19;5092440;28;20521;-44
2022/07/26 07:54:41;;;;;;;6.75;6.25;;;;;;;42.29;29.03;98862.91;5093104;28;20475;-45
2022/07/26 07:57:07;;;;;;;7.55;6.40;;;;;;;42.63;27.00;98857.53;5092892;28;20068;-42
2022/07/26 07:59:33;;;;;;;8.00;6.70;;;;;;;42.81;26.44;98864.31;5091385;28;20134;-46
2022/07/26 08:01:59;;;;;;;8.15;6.80;;;;;;;43.01;26.09;98853.25;5105862;28;20097;-45
2022/07/26 08:04:24;;;;;;;7.35;6.65;;;;;;;43.18;25.17;98858.38;5092660;28;20071;-46
2022/07/26 08:06:51;;;;;;;7.35;6.72;;;;;;;43.02;24.98;98836.56;5092525;28;20479;-44
2022/07/26 08:09:17;;;;;;;7.70;7.00;;;;;;;43.20;25.07;98840.53;5092560;28;20086;-46
2022/07/26 08:11:43;;;;;;;10.10;9.07;;;;;;;43.63;24.76;98847.03;5092630;28;20085;-46
2022/07/26 08:14:09;;;;;;;9.52;8.27;;;;;;;43.90;24.37;98862.97;5090627;28;20415;-44
2022/07/26 08:16:35;;;;;;;8.82;8.02;;;;;;;43.96;23.97;98856.34;5092518;28;20400;-46
2022/07/26 08:19:01;;;;;;;8.10;7.40;;;;;;;44.01;23.30;98856.28;5088432;28;20039;-46
2022/07/26 08:21:27;;;;;;;8.40;7.65;;;;;;;43.99;22.88;98861.22;5073871;28;20065;-44
2022/07/26 08:23:53;;;;;;;7.80;7.20;;;;;;;44.11;22.90;98852.59;5092243;28;20044;-46
2022/07/26 08:26:19;;;;;;;8.48;7.57;;;;;;;44.24;23.20;98852.69;5090906;28;20055;-43
2022/07/26 08:28:45;;;;;;;15.68;13.40;;;;;;;44.60;22.88;98852.28;5090281;28;20036;-48
2022/07/26 08:31:11;;;;;;;23.42;16.38;;;;;;;44.67;22.84;98858.25;5072518;28;20048;-46
2022/07/26 08:33:37;;;;;;;15.00;12.55;;;;;;;44.85;22.56;98856.63;5081879;28;20097;-45
2022/07/26 08:36:03;;;;;;;10.98;9.98;;;;;;;44.88;22.44;98856.03;5091129;28;20032;-46
2022/07/26 08:38:29;;;;;;;11.25;8.57;;;;;;;44.92;22.70;98852.41;5092327;28;20428;-45
2022/07/26 08:40:54;;;;;;;10.68;9.68;;;;;;;44.84;22.65;98841.28;5091101;28;20047;-49
2022/07/26 08:43:20;;;;;;;12.55;11.32;;;;;;;45.30;22.34;98857.88;5090646;28;20114;-49
2022/07/26 08:45:48;;;;;;;11.35;10.32;;;;;;;45.67;22.04;98860.56;5090828;28;20413;-49
2022/07/26 08:48:14;;;;;;;9.75;8.90;;;;;;;45.93;21.48;98869.19;5091453;28;20040;-46
2022/07/26 08:50:40;;;;;;;9.50;8.60;;;;;;;45.95;21.44;98858.72;5091777;28;20477;-45
2022/07/26 08:53:08;;;;;;;10.85;9.95;;;;;;;45.87;21.52;98857.47;5090207;28;20577;-47
2022/07/26 08:55:35;;;;;;;9.20;8.40;;;;;;;46.34;20.45;98860.97;5088798;28;20121;-46
2022/07/26 08:58:03;;;;;;;8.98;8.23;;;;;;;46.41;20.15;98858.63;5089054;28;20043;-46
2022/07/26 09:00:30;;;;;;;10.00;7.60;;;;;;;46.25;19.96;98858.13;5089174;28;20051;-46
2022/07/26 09:02:58;;;;;;;10.98;9.20;;;;;;;46.57;20.34;98859.97;5091483;28;20401;-46
2022/07/26 09:05:30;;;;;;;12.45;10.20;;;;;;;47.03;19.76;98859.75;5091584;28;20080;-46
2022/07/26 09:07:56;;;;;;;9.65;8.75;;;;;;;47.25;19.18;98858.16;5090384;28;20032;-45
2022/07/26 09:10:22;;;;;;;9.37;8.67;;;;;;;47.36;19.11;98860.38;5090202;28;20048;-45
2022/07/26 09:12:55;;;;;;;9.98;8.90;;;;;;;47.38;18.50;98840.75;5091764;28;20051;-51
2022/07/26 09:15:24;;;;;;;9.52;8.73;;;;;;;47.54;18.93;98858.53;5091438;28;20515;-44
2022/07/26 09:17:53;;;;;;;15.63;14.10;;;;;;;47.65;18.78;98864.59;5089008;28;20056;-46
2022/07/26 09:20:25;;;;;;;9.20;8.60;;;;;;;47.43;18.47;98865.41;5090240;28;20112;-43
2022/07/26 09:23:04;;;;;;;9.27;8.48;;;;;;;47.16;18.63;98853.38;5089062;28;20036;-44
2022/07/26 09:25:35;;;;;;;8.80;8.13;;;;;;;46.83;18.87;98865.72;5090914;28;20556;-42
2022/07/26 09:28:02;;;;;;;9.18;8.43;;;;;;;46.59;18.70;98821.94;5091297;28;20044;-43
2022/07/26 09:30:30;;;;;;;9.52;8.68;;;;;;;46.44;18.84;98833.25;5088248;28;20040;-49
2022/07/26 09:33:06;;;;;;;11.48;10.43;;;;;;;46.97;18.80;98851.94;5090780;28;20063;-47
2022/07/26 09:35:37;;;;;;;14.75;12.13;;;;;;;47.38;18.75;98849.84;5087760;28;20040;-45
2022/07/26 09:38:15;;;;;;;11.60;10.60;;;;;;;47.82;18.43;98854.50;5090102;28;20067;-47
2022/07/26 09:40:43;;;;;;;10.10;9.07;;;;;;;47.72;18.03;98852.03;5088654;28;20515;-45
2022/07/26 09:43:09;;;;;;;11.02;10.07;;;;;;;47.63;17.89;98855.84;5093333;28;20088;-46
2022/07/26 09:45:35;;;;;;;11.32;10.27;;;;;;;47.66;18.11;98835.94;5089827;27;20036;-44
2022/07/26 09:48:02;;;;;;;9.18;8.38;;;;;;;47.63;18.12;98853.91;5072846;28;20097;-47
2022/07/26 09:50:30;;;;;;;9.52;8.82;;;;;;;46.92;18.43;98830.03;5089953;28;20036;-47
2022/07/26 09:53:02;;;;;;;9.27;8.50;;;;;;;46.90;18.49;98841.31;5088774;28;20466;-45
2022/07/26 09:55:29;;;;;;;9.27;8.48;;;;;;;47.32;18.16;98833.78;5091154;28;20039;-44
2022/07/26 09:57:56;;;;;;;11.40;10.27;;;;;;;47.88;18.16;98827.59;5091414;28;20499;-47
2022/07/26 10:00:24;;;;;;;15.50;13.85;;;;;;;48.36;17.89;98833.19;5091375;28;20028;-46
2022/07/26 10:02:53;;;;;;;10.68;9.88;;;;;;;48.59;17.34;98815.34;5090630;28;20040;-47
2022/07/26 10:05:20;;;;;;;9.43;8.68;;;;;;;49.04;17.18;98837.16;5089806;28;20048;-50
2022/07/26 10:07:50;;;;;;;12.00;10.98;;;;;;;49.30;17.09;98837.16;5090698;28;20123;-49
2022/07/26 10:10:29;;;;;;;10.70;9.90;;;;;;;49.48;16.87;98838.75;5083016;28;20060;-47
2022/07/26 10:12:55;;;;;;;12.38;11.27;;;;;;;49.40;17.59;98839.56;5080867;28;20047;-48
2022/07/26 10:15:50;;;;;;;10.63;9.68;;;;;;;49.21;17.92;98832.44;5093507;28;20596;-47
2022/07/26 10:18:34;;;;;;;10.60;9.48;;;;;;;48.35;18.21;98837.88;5073616;28;20043;-46
2022/07/26 10:21:18;;;;;;;11.93;10.77;;;;;;;45.56;20.57;98834.38;5099036;28;20504;-46
2022/07/26 10:23:49;;;;;;;13.05;11.75;;;;;;;43.64;21.87;98806.78;5089288;28;20499;-45
2022/07/26 10:26:30;;;;;;;15.32;12.25;;;;;;;44.24;21.21;98824.47;5090373;28;20532;-50
2022/07/26 10:29:16;;;;;;;11.20;9.82;;;;;;;42.78;22.91;98819.19;5097820;28;20523;-46
2022/07/26 10:31:43;;;;;;;10.80;9.70;;;;;;;41.37;24.20;98806.72;5100533;28;20069;-47
2022/07/26 10:34:09;;;;;;;9.52;8.60;;;;;;;40.87;24.46;98821.16;5087977;28;20089;-47
2022/07/26 10:36:37;;;;;;;9.10;8.40;;;;;;;42.22;23.09;98813.97;5090205;28;20036;-47
2022/07/26 10:39:15;;;;;;;10.07;8.85;;;;;;;43.35;21.90;98817.69;5071791;28;20043;-49
2022/07/26 10:41:46;;;;;;;8.70;7.68;;;;;;;42.55;22.51;98795.25;5088559;28;20038;-47
2022/07/26 10:44:17;;;;;;;10.18;7.80;;;;;;;41.01;24.57;98811.34;5085707;28;20047;-48
2022/07/26 10:47:14;;;;;;;8.75;8.00;;;;;;;39.99;26.39;98803.91;5090076;28;20040;-50
2022/07/26 10:49:51;;;;;;;8.32;7.63;;;;;;;39.61;27.12;98805.81;5069274;28;20101;-51
2022/07/26 10:52:20;;;;;;;9.50;8.55;;;;;;;40.50;26.78;98797.59;5074225;28;20035;-47
2022/07/26 10:54:58;;;;;;;9.18;8.25;;;;;;;40.97;26.59;98805.63;5089636;28;20031;-45
2022/07/26 10:57:27;;;;;;;9.40;8.35;;;;;;;40.12;27.10;98803.41;5087242;28;20066;-45
2022/07/26 10:59:56;;;;;;;9.55;8.75;;;;;;;40.32;27.52;98803.50;5088667;28;20127;-47
2022/07/26 11:02:30;;;;;;;10.10;8.88;;;;;;;42.02;25.77;98807.78;5084168;28;20416;-45
2022/07/26 11:05:12;;;;;;;12.75;11.32;;;;;;;43.60;24.25;98792.88;5087030;28;20407;-50
2022/07/26 11:07:56;;;;;;;9.93;8.80;;;;;;;43.29;24.09;98794.22;5089493;28;20040;-47
2022/07/26 11:10:44;;;;;;;10.57;9.68;;;;;;;44.08;23.11;98796.44;5069878;28;20075;-50
2022/07/26 11:13:17;;;;;;;13.23;10.35;;;;;;;45.21;22.31;98777.31;5077200;28;20636;-44
2022/07/26 11:16:00;;;;;;;10.75;9.85;;;;;;;46.13;21.26;98802.81;5090206;28;20511;-47
2022/07/26 11:18:31;;;;;;;11.20;10.25;;;;;;;46.90;20.40;98802.78;5088512;28;20503;-48
2022/07/26 11:21:07;;;;;;;10.50;9.70;;;;;;;47.37;20.27;98806.88;5087259;28;20123;-50
2022/07/26 11:23:34;;;;;;;;;;;;;;;47.76;20.09;98802.59;5090007;28;20032;-48